La aerolínea del bienestar de la 4T y AMLO podría ser “Aeromar“

JAJ

Member
Los ATR´s de VW sin duda son grandes aviones para el segmento REGIONAL o ALIMENTADOR. Si se pretende que Aeromar sea una aerolínea de alcance nacional y que además de alguna manera justifique lo que hasta ahora es injustificable, es decir, las enormes inversiones en el AIFA, requerirá aeronaves en otra categoría. Y es que no veo quien en sus cinco sentidos vaya a emplear a NLU para hacer un ACA, MLM o VER. De por si, dado los temas de Facilitación en los aeropuertos las rutas cortas están perdiendo competitividad, como para ahora sumarles un desplazamiento a Santa Lucía antes de subir a un avión.
 

juanpa

Active Member
Buen día,

Alguien tiene información de la situación del vuelo 140 de aeromar, en la ruta Mex-Tpq? se encuentra en patrón de espera.

No había visibilidad :

MMEP 181458Z 00000KT 5SM SKC 19/19 A3011 RMK BCFG ARND
MMEP 181450Z 00000KT 2SM BR SKC 19/19 A3011 RMK SLP183 52009 962 BCFG ARND
MMEP 181434Z 00000KT 1SM BR VV008 19/19 A3011 RMK 8//// LWR VSBY N FG
MMEP 181348Z 00000KT 1/16SM FG VV001 18/18 A3010 RMK 8////
MMEP 181240Z 00000KT 1/16SM FG VV001 18/18 A3009 RMK 8////


Ing. Juan Pablo Wagner Naveda
 

XA-EAH

Active Member
No había visibilidad :

MMEP 181458Z 00000KT 5SM SKC 19/19 A3011 RMK BCFG ARND
MMEP 181450Z 00000KT 2SM BR SKC 19/19 A3011 RMK SLP183 52009 962 BCFG ARND
MMEP 181434Z 00000KT 1SM BR VV008 19/19 A3011 RMK 8//// LWR VSBY N FG
MMEP 181348Z 00000KT 1/16SM FG VV001 18/18 A3010 RMK 8////
MMEP 181240Z 00000KT 1/16SM FG VV001 18/18 A3009 RMK 8////


Ing. Juan Pablo Wagner Naveda
Donde consultas los METAR?
 

mmora01

Well-Known Member
 

Guajolojet

Well-Known Member
La aerolinea del bienestar con ASPA, el gobierno y aspa son igualitos dicen que ayudan y apoyan, dejen que firmen acuerdo e inmediatamente aspa a cogerse a la aerolinea y en cuanto firmen, el gobierno intentara sacar a aspa como a los de Conacyt, van a salir chispas entre estos estafadores son igualitos yo propondria que aspa cambie de nombre y se llame 5T.
 
Última edición:
Arriba